Time;durP1;ratioP1;P1;durP2;ratioP2;P2;SDS_P1;SDS_P2;PMS_P1;PMS_P2;Temp;Humidity;BMP_temperature;BMP_pressure;BME280_temperature;BME280_humidity;BME280_pressure;Samples;Min_cycle;Max_cycle;Signal;HPM_P1;HPM_P2
2023/08/17 00:00:21;;;;;;;4.77;4.37;;;;;;;19.85;92.00;101524.63;5002310;28;20453;-82
2023/08/17 00:02:51;;;;;;;6.37;5.17;;;;;;;19.87;91.99;101530.72;5006111;28;20497;-81
2023/08/17 00:05:20;;;;;;;5.30;4.50;;;;;;;19.79;92.56;101528.41;5002053;28;20596;-80
2023/08/17 00:07:51;;;;;;;7.20;5.10;;;;;;;19.81;92.36;101520.72;5003840;28;20441;-82
2023/08/17 00:10:20;;;;;;;9.63;5.23;;;;;;;19.80;92.42;101511.66;4997695;28;20421;-82
2023/08/17 00:12:49;;;;;;;6.53;4.43;;;;;;;19.79;92.35;101509.16;5076422;22;20493;-82
2023/08/17 00:15:18;;;;;;;6.67;4.70;;;;;;;19.73;93.02;101499.16;5062068;28;20465;-83
2023/08/17 00:17:48;;;;;;;8.50;5.47;;;;;;;19.71;92.97;101499.41;5063356;28;20477;-82
2023/08/17 00:20:18;;;;;;;6.83;5.50;;;;;;;19.67;93.48;101489.16;5064646;28;20405;-81
2023/08/17 00:22:47;;;;;;;6.13;4.27;;;;;;;19.58;94.15;101477.78;5045307;28;20472;-83
2023/08/17 00:25:19;;;;;;;7.00;5.63;;;;;;;19.65;93.79;101474.88;5045385;28;20462;-83
2023/08/17 00:27:48;;;;;;;7.90;5.20;;;;;;;19.61;94.05;101476.44;5054629;28;20448;-83
2023/08/17 00:30:18;;;;;;;7.17;4.57;;;;;;;19.57;94.17;101475.25;5046793;28;20436;-83
2023/08/17 00:32:48;;;;;;;6.37;4.87;;;;;;;19.50;94.73;101470.78;5044448;28;20498;-83
2023/08/17 00:35:17;;;;;;;9.17;5.80;;;;;;;19.47;94.98;101474.00;5044238;28;20970;-83
2023/08/17 00:37:47;;;;;;;6.80;5.83;;;;;;;19.43;95.08;101481.03;5039241;28;20449;-83
2023/08/17 00:40:19;;;;;;;7.37;4.43;;;;;;;19.41;95.44;101477.69;5047743;28;20757;-83
2023/08/17 00:42:49;;;;;;;9.27;5.00;;;;;;;19.38;95.91;101471.88;5041847;28;20518;-83
2023/08/17 00:45:19;;;;;;;5.83;4.80;;;;;;;19.37;95.91;101465.56;5047514;28;20402;-82
2023/08/17 00:47:49;;;;;;;6.50;4.80;;;;;;;19.28;96.63;101469.78;5041023;28;20420;-83
2023/08/17 00:50:19;;;;;;;4.90;4.43;;;;;;;19.28;96.79;101472.50;5045951;28;20412;-83
2023/08/17 00:52:49;;;;;;;8.63;5.30;;;;;;;19.24;97.08;101471.34;5044523;28;20543;-84
2023/08/17 00:55:20;;;;;;;9.00;5.20;;;;;;;19.19;97.42;101464.94;5044645;28;20457;-84
2023/08/17 00:57:49;;;;;;;7.53;4.97;;;;;;;19.23;97.38;101471.59;5045813;28;20442;-84
2023/08/17 01:00:19;;;;;;;6.70;5.37;;;;;;;19.18;97.79;101477.81;5048864;28;20428;-84
2023/08/17 01:02:49;;;;;;;5.57;5.07;;;;;;;19.21;97.47;101482.81;5047073;28;20475;-82
2023/08/17 01:05:19;;;;;;;10.60;5.20;;;;;;;19.05;98.48;101478.94;5048288;28;20432;-81
2023/08/17 01:07:49;;;;;;;5.23;4.70;;;;;;;19.04;99.13;101492.88;5045190;28;20432;-83
2023/08/17 01:10:20;;;;;;;6.53;4.70;;;;;;;18.97;99.27;101478.50;5035772;28;20433;-82
2023/08/17 01:12:56;;;;;;;5.90;4.93;;;;;;;19.04;98.82;101481.91;5035743;28;20502;-83
2023/08/17 01:15:34;;;;;;;6.43;4.70;;;;;;;19.01;98.93;101476.94;5040083;28;20440;-83
2023/08/17 01:18:21;;;;;;;6.43;4.90;;;;;;;18.97;98.98;101470.28;5044831;28;20513;-83
2023/08/17 01:20:53;;;;;;;6.90;5.10;;;;;;;19.03;98.93;101472.03;5050134;28;20403;-81
2023/08/17 01:23:25;;;;;;;5.40;4.90;;;;;;;19.07;98.19;101471.28;5048035;28;20429;-82
2023/08/17 01:25:57;;;;;;;6.00;5.00;;;;;;;19.04;98.31;101459.97;5053180;28;20408;-80
2023/08/17 01:28:27;;;;;;;8.53;4.90;;;;;;;19.00;98.52;101453.31;5052539;28;20493;-82
2023/08/17 01:31:01;;;;;;;6.50;5.90;;;;;;;18.95;98.69;101451.31;5055537;28;20403;-82
2023/08/17 01:33:36;;;;;;;5.80;5.30;;;;;;;18.95;98.78;101465.03;5055820;28;20527;-81
2023/08/17 01:36:13;;;;;;;6.80;5.10;;;;;;;18.88;99.04;101456.09;5055716;28;20455;-82
2023/08/17 01:38:45;;;;;;;9.10;5.60;;;;;;;18.86;99.01;101451.94;5058422;28;20443;-81
2023/08/17 01:41:16;;;;;;;7.80;5.93;;;;;;;18.84;99.16;101465.88;5055903;28;20471;-82
2023/08/17 01:43:47;;;;;;;6.33;5.40;;;;;;;18.85;99.03;101466.72;5054307;28;20427;-81
2023/08/17 01:46:18;;;;;;;10.30;6.30;;;;;;;18.85;99.21;101473.03;5058821;28;20443;-83
2023/08/17 01:48:48;;;;;;;5.40;4.90;;;;;;;18.79;99.04;101470.41;5053909;28;20425;-83
2023/08/17 01:51:20;;;;;;;6.03;5.53;;;;;;;18.79;99.38;101464.94;5043752;28;20558;-82
2023/08/17 01:53:51;;;;;;;9.60;5.63;;;;;;;18.74;99.64;101465.66;5056760;28;20615;-83
2023/08/17 01:56:20;;;;;;;7.30;4.83;;;;;;;18.72;99.83;101467.84;5057630;28;20478;-83
2023/08/17 01:58:49;;;;;;;9.87;5.17;;;;;;;18.68;100.00;101472.16;5044907;28;20432;-83
2023/08/17 02:01:18;;;;;;;5.87;4.70;;;;;;;18.71;100.00;101476.28;5045325;28;20479;-83
2023/08/17 02:03:48;;;;;;;9.10;5.90;;;;;;;18.64;100.00;101476.41;5043202;28;20436;-83
2023/08/17 02:06:17;;;;;;;5.83;5.10;;;;;;;18.61;100.00;101474.16;5043249;28;20476;-82
2023/08/17 02:08:46;;;;;;;8.00;6.00;;;;;;;18.55;100.00;101478.69;5039311;28;20432;-83
2023/08/17 02:11:17;;;;;;;5.63;5.10;;;;;;;18.58;100.00;101477.41;5044467;28;20953;-82
2023/08/17 02:13:47;;;;;;;10.50;5.50;;;;;;;18.58;100.00;101472.75;5024740;28;20406;-83
2023/08/17 02:16:16;;;;;;;6.93;6.17;;;;;;;18.54;100.00;101477.03;5045714;28;20882;-82
2023/08/17 02:18:46;;;;;;;10.47;6.20;;;;;;;18.55;100.00;101478.69;5043811;28;20411;-83
2023/08/17 02:21:15;;;;;;;6.00;5.40;;;;;;;18.54;100.00;101473.47;5044158;28;20486;-83
2023/08/17 02:23:44;;;;;;;5.63;4.63;;;;;;;18.57;100.00;101475.72;5047447;28;20919;-83
2023/08/17 02:26:13;;;;;;;7.90;5.53;;;;;;;18.58;100.00;101480.16;5031486;28;20895;-83
2023/08/17 02:28:44;;;;;;;6.20;5.50;;;;;;;18.54;100.00;101476.22;5046002;28;20394;-83
2023/08/17 02:31:13;;;;;;;7.73;5.53;;;;;;;18.51;100.00;101474.75;5047083;28;20517;-81
2023/08/17 02:33:42;;;;;;;5.47;4.67;;;;;;;18.58;100.00;101467.28;5037761;28;20425;-83
2023/08/17 02:36:12;;;;;;;6.80;5.43;;;;;;;18.53;100.00;101469.03;5037959;28;20472;-83
2023/08/17 02:38:42;;;;;;;6.80;5.87;;;;;;;18.50;100.00;101455.78;5044942;28;20410;-83
2023/08/17 02:41:11;;;;;;;8.30;5.43;;;;;;;18.47;100.00;101454.38;5037616;28;20426;-84
2023/08/17 02:43:40;;;;;;;7.30;5.30;;;;;;;18.50;99.86;101448.41;5042554;28;20414;-82
2023/08/17 02:46:11;;;;;;;6.53;4.50;;;;;;;18.42;99.80;101446.06;5046026;28;20446;-82
2023/08/17 02:48:40;;;;;;;6.10;5.20;;;;;;;18.53;98.75;101456.19;5039325;28;20448;-83
2023/08/17 02:51:10;;;;;;;5.63;4.47;;;;;;;18.47;98.87;101448.91;5037560;28;20434;-83
2023/08/17 02:53:39;;;;;;;7.73;5.17;;;;;;;18.50;98.22;101453.88;5045752;28;20422;-83
2023/08/17 02:56:11;;;;;;;7.70;4.70;;;;;;;18.49;97.91;101452.22;5044654;28;20460;-82
2023/08/17 02:58:41;;;;;;;6.87;4.40;;;;;;;18.45;97.91;101440.06;5039081;28;20441;-81
2023/08/17 03:01:13;;;;;;;4.73;4.27;;;;;;;18.46;97.41;101443.66;5046447;28;20457;-83
2023/08/17 03:03:42;;;;;;;6.20;5.53;;;;;;;18.50;96.75;101442.94;5053405;28;21868;-82
2023/08/17 03:06:13;;;;;;;5.17;4.67;;;;;;;18.43;97.13;101453.22;5056723;28;20407;-81
2023/08/17 03:08:43;;;;;;;8.67;5.83;;;;;;;18.42;96.28;101443.31;5052779;28;20426;-82
2023/08/17 03:11:13;;;;;;;5.13;3.73;;;;;;;18.39;96.50;101449.28;5050920;28;20482;-81
2023/08/17 03:13:42;;;;;;;5.80;4.67;;;;;;;18.46;95.16;101454.63;5053968;28;20451;-81
2023/08/17 03:16:13;;;;;;;9.43;4.13;;;;;;;18.44;94.63;101452.13;5051574;28;20423;-82
2023/08/17 03:18:43;;;;;;;6.20;4.70;;;;;;;18.38;94.92;101461.31;5048327;28;20421;-83
2023/08/17 03:21:14;;;;;;;6.33;4.30;;;;;;;18.44;94.23;101452.13;5057310;28;20440;-83
2023/08/17 03:23:43;;;;;;;7.43;4.47;;;;;;;18.45;93.50;101453.78;5053123;28;20415;-81
2023/08/17 03:26:12;;;;;;;4.20;3.80;;;;;;;18.39;93.38;101448.44;5057183;28;20420;-81
2023/08/17 03:28:42;;;;;;;5.43;3.73;;;;;;;18.43;92.23;101449.63;5058221;28;20505;-82
2023/08/17 03:31:13;;;;;;;7.13;4.20;;;;;;;18.45;91.91;101444.72;5057342;28;20431;-83
2023/08/17 03:33:46;;;;;;;5.17;4.67;;;;;;;18.45;91.57;101439.25;5056447;28;20474;-81
2023/08/17 03:36:16;;;;;;;5.93;5.40;;;;;;;18.40;91.41;101437.22;5054998;28;20439;-82
2023/08/17 03:38:45;;;;;;;5.03;4.07;;;;;;;18.37;90.89;101436.88;5052961;28;20418;-83
2023/08/17 03:41:14;;;;;;;9.40;4.23;;;;;;;18.35;90.94;101436.31;5045813;28;20455;-84
2023/08/17 03:43:44;;;;;;;5.70;4.63;;;;;;;18.39;89.95;101437.50;5043677;28;20438;-82
2023/08/17 03:46:15;;;;;;;7.93;4.30;;;;;;;18.39;89.44;101435.59;5042535;28;20403;-83
2023/08/17 03:48:44;;;;;;;3.80;3.50;;;;;;;18.48;88.49;101449.75;5041345;28;20845;-82
2023/08/17 03:51:13;;;;;;;6.67;4.03;;;;;;;18.48;87.79;101456.06;5044516;28;20430;-82
2023/08/17 03:53:42;;;;;;;4.63;3.87;;;;;;;18.48;87.28;101450.56;5045487;28;20411;-82
2023/08/17 03:56:11;;;;;;;3.73;3.40;;;;;;;18.49;86.85;101446.75;5042792;28;20480;-82
2023/08/17 03:58:43;;;;;;;4.60;4.07;;;;;;;18.46;86.95;101440.91;5043754;28;20420;-83
2023/08/17 04:01:14;;;;;;;5.20;3.57;;;;;;;18.41;86.76;101438.91;5046596;28;20500;-82
2023/08/17 04:03:43;;;;;;;4.80;3.07;;;;;;;18.40;86.33;101436.38;5038028;28;20437;-83
2023/08/17 04:06:13;;;;;;;4.30;3.20;;;;;;;18.45;85.55;101434.59;5049721;28;20423;-82
2023/08/17 04:08:44;;;;;;;4.93;2.50;;;;;;;18.47;84.63;101431.63;5048432;28;20427;-83
2023/08/17 04:11:13;;;;;;;7.00;4.40;;;;;;;18.49;84.24;101430.28;5040312;28;20468;-83
2023/08/17 04:13:42;;;;;;;3.60;2.53;;;;;;;18.57;83.47;101427.22;5044352;28;20432;-83
2023/08/17 04:16:11;;;;;;;5.80;3.57;;;;;;;18.56;83.18;101425.56;5043324;28;20459;-83
2023/08/17 04:18:41;;;;;;;4.07;3.50;;;;;;;18.60;83.26;101421.25;5045425;28;20409;-83
2023/08/17 04:21:10;;;;;;;6.03;3.47;;;;;;;19.07;80.64;101430.13;5039210;28;20462;-83
2023/08/17 04:23:39;;;;;;;4.80;3.50;;;;;;;19.61;78.00;101432.50;5030552;28;20437;-83
2023/08/17 04:26:08;;;;;;;4.07;3.67;;;;;;;20.05;75.31;101434.31;5040965;28;20406;-83
2023/08/17 04:28:38;;;;;;;4.03;3.33;;;;;;;20.08;74.30;101431.09;5037559;28;20508;-82
2023/08/17 04:31:07;;;;;;;6.53;3.93;;;;;;;20.41;72.57;101429.38;5042117;28;20427;-83
2023/08/17 04:33:42;;;;;;;9.40;3.27;;;;;;;20.46;72.22;101434.94;5039447;28;20482;-83
2023/08/17 04:36:14;;;;;;;5.70;3.87;;;;;;;20.81;70.75;101427.16;5059927;28;20475;-82
2023/08/17 04:38:43;;;;;;;3.90;2.93;;;;;;;21.03;69.93;101427.09;5042485;28;20458;-83
2023/08/17 04:41:13;;;;;;;4.93;3.33;;;;;;;21.13;68.77;101430.84;5049098;28;20452;-82
2023/08/17 04:43:42;;;;;;;5.27;3.10;;;;;;;21.05;69.61;101423.03;5031065;28;20436;-82
2023/08/17 04:46:12;;;;;;;3.70;3.27;;;;;;;21.46;67.84;101424.28;5039013;28;20472;-83
2023/08/17 04:48:43;;;;;;;7.60;4.00;;;;;;;21.65;66.69;101428.28;5027896;28;20512;-83
2023/08/17 04:51:14;;;;;;;5.00;3.47;;;;;;;21.51;66.74;101420.72;5038978;28;20435;-83
2023/08/17 04:53:45;;;;;;;5.63;3.80;;;;;;;21.89;65.94;101428.75;5043402;28;20442;-83
2023/08/17 04:56:14;;;;;;;5.10;3.60;;;;;;;22.23;64.54;101429.28;5040400;28;20930;-82
2023/08/17 04:58:43;;;;;;;5.87;3.43;;;;;;;22.46;64.02;101436.31;5039019;28;20452;-82
2023/08/17 05:01:14;;;;;;;5.03;4.53;;;;;;;22.80;62.25;101445.88;5042238;28;20457;-82
2023/08/17 05:03:45;;;;;;;7.00;3.20;;;;;;;22.59;62.79;101444.09;5043144;28;20459;-82
2023/08/17 05:06:15;;;;;;;10.77;3.83;;;;;;;22.78;62.37;101444.50;5044090;28;20434;-82
2023/08/17 05:08:44;;;;;;;4.47;3.60;;;;;;;22.45;62.72;101442.94;5046156;28;20486;-83
2023/08/17 05:11:14;;;;;;;3.43;3.13;;;;;;;21.97;64.70;101444.84;5047252;28;20487;-82
2023/08/17 05:13:43;;;;;;;7.27;3.40;;;;;;;22.19;64.23;101444.69;5050595;28;20432;-82
2023/08/17 05:16:12;;;;;;;6.40;3.87;;;;;;;22.17;64.32;101452.44;5053957;28;20460;-82
2023/08/17 05:18:42;;;;;;;6.93;3.60;;;;;;;21.61;66.50;101453.88;5033268;28;20440;-83
2023/08/17 05:21:15;;;;;;;5.40;3.13;;;;;;;21.13;68.37;101455.59;5037201;28;20464;-82
2023/08/17 05:23:45;;;;;;;7.27;3.30;;;;;;;20.71;70.14;101449.03;5039125;28;20458;-83
2023/08/17 05:26:14;;;;;;;4.70;2.60;;;;;;;20.19;72.36;101454.03;5033345;28;20899;-83
2023/08/17 05:28:45;;;;;;;3.27;2.97;;;;;;;19.91;74.08;101454.97;5033447;28;20951;-83
2023/08/17 05:31:14;;;;;;;3.00;2.63;;;;;;;19.90;74.22;101456.88;5036175;28;20849;-83
2023/08/17 05:33:48;;;;;;;6.10;4.30;;;;;;;19.83;75.02;101458.16;5041538;28;20451;-82
2023/08/17 05:36:19;;;;;;;4.07;2.60;;;;;;;19.90;74.48;101448.66;5037283;28;20444;-83
2023/08/17 05:38:48;;;;;;;4.63;3.60;;;;;;;19.81;75.04;101444.66;5047058;28;20464;-83
2023/08/17 05:41:17;;;;;;;5.60;3.53;;;;;;;19.77;75.88;101438.00;5048852;28;20496;-82
2023/08/17 05:43:48;;;;;;;5.27;3.47;;;;;;;19.76;75.87;101435.50;5051634;28;20403;-82
2023/08/17 05:46:17;;;;;;;6.53;4.67;;;;;;;19.78;75.70;101438.84;5053978;28;20426;-82
2023/08/17 05:48:47;;;;;;;8.50;4.03;;;;;;;19.82;75.88;101440.84;5050096;28;20433;-82
2023/08/17 05:51:18;;;;;;;3.93;3.47;;;;;;;19.92;75.51;101446.50;5052415;28;20494;-82
2023/08/17 05:53:47;;;;;;;4.20;3.87;;;;;;;19.96;75.09;101446.81;5052795;28;20411;-82
2023/08/17 05:56:16;;;;;;;4.87;3.47;;;;;;;20.16;74.61;101463.63;5054417;28;20504;-83
2023/08/17 05:58:46;;;;;;;3.67;3.13;;;;;;;20.37;73.79;101470.28;5044900;28;20471;-82
2023/08/17 06:01:16;;;;;;;6.43;3.90;;;;;;;20.56;73.59;101479.91;5041945;28;20452;-82
2023/08/17 06:03:45;;;;;;;4.83;3.67;;;;;;;20.60;72.16;101496.72;5046479;28;20483;-83
2023/08/17 06:06:15;;;;;;;5.30;3.63;;;;;;;20.86;71.92;101511.66;5048048;28;21115;-82
2023/08/17 06:08:45;;;;;;;6.30;3.40;;;;;;;21.10;70.87;101530.41;5045430;28;20432;-83
2023/08/17 06:11:14;;;;;;;7.63;3.03;;;;;;;21.16;72.68;101528.53;5034626;28;20675;-82
2023/08/17 06:13:45;;;;;;;5.63;3.17;;;;;;;21.12;72.56;101550.22;5031301;28;20526;-83
2023/08/17 06:16:14;;;;;;;3.90;3.50;;;;;;;21.09;72.67;101550.75;5037493;28;20428;-83
2023/08/17 06:18:47;;;;;;;4.70;3.47;;;;;;;21.07;73.14;101546.56;5034947;28;20460;-83
2023/08/17 06:21:16;;;;;;;8.50;4.57;;;;;;;20.97;72.97;101533.50;5035890;28;20456;-83
2023/08/17 06:23:46;;;;;;;6.30;3.40;;;;;;;20.97;71.78;101525.25;5033883;28;20432;-83
2023/08/17 06:26:15;;;;;;;5.67;4.10;;;;;;;21.19;72.02;101525.31;5045399;28;20424;-83
2023/08/17 06:28:44;;;;;;;4.47;3.97;;;;;;;21.47;70.64;101524.22;5053402;28;20475;-82
2023/08/17 06:31:16;;;;;;;7.83;3.93;;;;;;;21.73;69.28;101526.16;5058100;28;20448;-83
2023/08/17 06:33:46;;;;;;;6.47;5.60;;;;;;;21.91;67.90;101531.28;5046106;28;20442;-83
2023/08/17 06:36:16;;;;;;;5.57;4.37;;;;;;;22.10;67.01;101518.81;5043389;28;20431;-83
2023/08/17 06:38:47;;;;;;;6.50;3.90;;;;;;;22.00;68.19;101524.22;5036310;28;21069;-84
2023/08/17 06:41:17;;;;;;;5.23;3.80;;;;;;;22.34;66.56;101529.44;5040376;28;20455;-83
2023/08/17 06:43:46;;;;;;;3.97;3.50;;;;;;;22.46;66.15;101516.31;5046662;28;20428;-83
2023/08/17 06:46:15;;;;;;;6.37;3.80;;;;;;;22.41;64.61;101505.25;5054042;28;20451;-83
2023/08/17 06:48:45;;;;;;;8.53;4.30;;;;;;;22.61;64.22;101497.06;5052005;28;20464;-84
2023/08/17 06:51:14;;;;;;;5.57;3.30;;;;;;;22.76;63.74;101501.84;5042374;28;20473;-83
2023/08/17 06:53:43;;;;;;;8.83;4.03;;;;;;;22.86;63.64;101493.63;5039816;28;20903;-83
2023/08/17 06:56:14;;;;;;;6.30;3.43;;;;;;;22.83;63.46;101492.25;5040759;28;20455;-83
2023/08/17 06:58:42;;;;;;;3.97;3.57;;;;;;;22.60;65.47;101498.19;5039907;28;20473;-83
2023/08/17 07:01:11;;;;;;;7.13;3.40;;;;;;;22.67;64.21;101495.16;5042576;28;20796;-83
2023/08/17 07:03:41;;;;;;;6.27;3.67;;;;;;;22.36;65.71;101488.66;5046374;28;20444;-84
2023/08/17 07:06:10;;;;;;;7.07;3.90;;;;;;;22.45;65.74;101487.06;5054961;28;20451;-84
2023/08/17 07:08:40;;;;;;;9.00;4.10;;;;;;;22.56;65.54;101486.00;5040505;28;20429;-83
2023/08/17 07:11:09;;;;;;;6.00;4.57;;;;;;;22.77;65.44;101490.56;5043351;28;20828;-83
2023/08/17 07:13:41;;;;;;;4.40;3.80;;;;;;;22.98;63.76;101494.25;5037927;28;20448;-84
2023/08/17 07:16:21;;;;;;;4.23;3.83;;;;;;;23.12;63.50;101491.81;5031589;28;20452;-83
2023/08/17 07:18:55;;;;;;;6.27;3.47;;;;;;;23.47;62.56;101488.34;5035454;28;20471;-83
2023/08/17 07:21:25;;;;;;;10.83;4.30;;;;;;;23.44;61.53;101499.88;5045449;28;20491;-82
2023/08/17 07:23:56;;;;;;;7.23;4.73;;;;;;;23.42;61.22;101508.47;5036579;28;20494;-82
2023/08/17 07:26:25;;;;;;;6.80;4.07;;;;;;;23.46;60.47;101498.56;5049475;28;20413;-83
2023/08/17 07:28:55;;;;;;;4.30;3.90;;;;;;;23.26;62.21;101506.75;5044040;28;20429;-83
2023/08/17 07:31:24;;;;;;;12.73;4.67;;;;;;;23.26;62.33;101499.31;5049582;28;20443;-84
2023/08/17 07:33:53;;;;;;;10.70;3.80;;;;;;;23.42;62.84;101502.09;5043497;28;20441;-84
2023/08/17 07:36:23;;;;;;;5.27;3.60;;;;;;;23.50;62.10;101499.66;5047273;28;20428;-84
2023/08/17 07:38:52;;;;;;;4.70;4.03;;;;;;;23.52;61.41;101505.75;5045909;28;20466;-83
2023/08/17 07:41:21;;;;;;;6.10;4.60;;;;;;;23.26;62.60;101501.22;5049489;28;20961;-83
2023/08/17 07:43:50;;;;;;;8.07;4.20;;;;;;;22.65;64.34;101503.72;5047147;28;20407;-83
2023/08/17 07:46:21;;;;;;;6.87;4.90;;;;;;;22.71;65.05;101501.84;5044070;28;20415;-83
2023/08/17 07:48:50;;;;;;;6.17;4.43;;;;;;;22.77;64.96;101504.34;5029079;28;20493;-83
2023/08/17 07:51:19;;;;;;;5.30;4.10;;;;;;;23.01;64.89;101510.25;5036404;28;20469;-84
2023/08/17 07:53:48;;;;;;;6.47;4.03;;;;;;;23.06;63.88;101499.22;5041801;28;20434;-82
2023/08/17 07:56:17;;;;;;;3.70;3.40;;;;;;;23.20;62.75;101502.31;5052435;28;20483;-83
2023/08/17 07:58:46;;;;;;;4.43;3.80;;;;;;;23.28;63.60;101497.13;5056104;28;20472;-84
2023/08/17 08:01:15;;;;;;;5.00;3.83;;;;;;;23.46;62.33;101489.44;5057720;28;20464;-84
2023/08/17 08:03:46;;;;;;;5.80;4.73;;;;;;;23.56;62.34;101476.47;5045135;28;20429;-84
2023/08/17 08:06:15;;;;;;;5.10;4.13;;;;;;;23.60;62.56;101477.59;5052253;28;20463;-85
2023/08/17 08:08:44;;;;;;;5.70;4.60;;;;;;;23.46;62.95;101479.22;5053646;28;20785;-83
2023/08/17 08:11:14;;;;;;;8.40;5.90;;;;;;;23.63;62.29;101476.19;5057975;28;20455;-84
2023/08/17 08:13:43;;;;;;;4.80;3.47;;;;;;;23.70;61.92;101472.06;5051800;28;20445;-84
2023/08/17 08:16:12;;;;;;;4.93;4.30;;;;;;;23.61;62.53;101467.38;5054249;28;20436;-83
2023/08/17 08:18:41;;;;;;;8.50;5.43;;;;;;;23.39;63.07;101462.03;5044321;28;20464;-84
2023/08/17 08:21:12;;;;;;;5.00;4.50;;;;;;;23.43;63.77;101463.16;5050255;28;20752;-83
2023/08/17 08:23:41;;;;;;;6.77;4.27;;;;;;;23.61;63.33;101453.56;5042586;28;20447;-84
2023/08/17 08:26:10;;;;;;;4.30;4.00;;;;;;;23.68;63.44;101457.69;5044026;28;20454;-83
2023/08/17 08:28:40;;;;;;;5.17;4.67;;;;;;;23.86;63.26;101453.56;5040122;28;20403;-82
2023/08/17 08:31:09;;;;;;;5.40;4.50;;;;;;;24.17;62.42;101471.78;5046530;28;20447;-83
2023/08/17 08:33:38;;;;;;;8.73;4.43;;;;;;;23.70;63.93;101466.53;5034546;28;20436;-83
2023/08/17 08:36:08;;;;;;;5.93;4.70;;;;;;;23.65;64.50;101449.97;5034472;28;20480;-84
2023/08/17 08:38:38;;;;;;;6.80;5.10;;;;;;;23.67;64.77;101452.47;5040129;28;20459;-84
2023/08/17 08:41:10;;;;;;;7.03;5.03;;;;;;;24.18;63.77;101440.28;5041319;28;20470;-83
2023/08/17 08:43:40;;;;;;;9.17;4.63;;;;;;;24.21;63.19;101438.88;5035659;28;20930;-84
2023/08/17 08:46:11;;;;;;;6.27;4.67;;;;;;;24.15;64.03;101431.69;5050154;28;20436;-84
2023/08/17 08:48:43;;;;;;;6.60;4.77;;;;;;;23.83;65.59;101432.81;5044807;28;20423;-83
2023/08/17 08:51:17;;;;;;;7.07;6.00;;;;;;;23.69;66.96;101437.25;5046505;28;20448;-83
2023/08/17 08:53:55;;;;;;;9.00;5.10;;;;;;;23.66;67.39;101428.69;5053517;28;20440;-85
2023/08/17 08:56:29;;;;;;;6.80;4.60;;;;;;;23.77;67.13;101427.56;5041902;28;20453;-86
2023/08/17 08:59:02;;;;;;;7.00;5.10;;;;;;;23.37;68.36;101428.38;5050012;28;21148;-83
2023/08/17 09:01:35;;;;;;;8.80;5.40;;;;;;;23.27;69.21;101420.91;5049339;28;20528;-83
2023/08/17 09:04:05;;;;;;;7.20;5.50;;;;;;;23.27;69.35;101431.09;5052716;28;20378;-83
2023/08/17 09:06:36;;;;;;;5.93;5.30;;;;;;;23.33;68.49;101421.75;5054097;28;20405;-83
2023/08/17 09:09:08;;;;;;;6.20;5.70;;;;;;;23.18;69.59;101425.31;5055278;28;20462;-83
2023/08/17 09:11:38;;;;;;;7.97;4.90;;;;;;;23.25;69.73;101411.22;5054813;28;20448;-83
2023/08/17 09:14:13;;;;;;;6.00;5.50;;;;;;;23.42;69.86;101414.56;5051323;28;20418;-83
2023/08/17 09:16:42;;;;;;;5.90;4.30;;;;;;;23.48;69.29;101407.94;5042820;28;20439;-83
2023/08/17 09:19:12;;;;;;;5.77;4.90;;;;;;;23.49;69.53;101406.84;5046467;28;20480;-82
2023/08/17 09:21:41;;;;;;;6.10;5.03;;;;;;;23.63;69.17;101409.88;5045736;28;20528;-82
2023/08/17 09:24:13;;;;;;;6.47;5.27;;;;;;;23.76;69.56;101415.69;5041027;28;20415;-82
2023/08/17 09:26:42;;;;;;;9.40;5.10;;;;;;;24.05;67.66;101413.19;5044671;28;20459;-82
2023/08/17 09:29:22;;;;;;;7.67;4.80;;;;;;;23.81;68.03;101412.94;5044686;28;20809;-83
2023/08/17 09:31:52;;;;;;;4.83;4.33;;;;;;;24.00;67.92;101415.13;5041646;28;20818;-83
2023/08/17 09:34:21;;;;;;;7.33;5.60;;;;;;;24.38;66.96;101428.34;5035909;28;20427;-83
2023/08/17 09:36:50;;;;;;;6.70;5.70;;;;;;;24.42;66.50;101429.41;5039031;28;20417;-83
2023/08/17 09:39:20;;;;;;;7.83;5.93;;;;;;;24.38;67.15;101422.81;5043603;28;20465;-82
2023/08/17 09:41:49;;;;;;;7.57;5.50;;;;;;;24.66;65.47;101416.59;5043880;28;20460;-83
2023/08/17 09:44:19;;;;;;;5.87;4.80;;;;;;;24.69;65.27;101423.50;5052546;28;20440;-83
2023/08/17 09:46:48;;;;;;;6.37;5.47;;;;;;;24.95;64.48;101414.00;5054258;28;20483;-82
2023/08/17 09:49:19;;;;;;;7.67;5.37;;;;;;;24.95;64.12;101421.47;5048614;28;20404;-84
2023/08/17 09:51:48;;;;;;;7.10;5.10;;;;;;;24.68;65.49;101428.22;5054086;28;20447;-83
2023/08/17 09:54:26;;;;;;;8.30;4.80;;;;;;;24.48;66.48;101425.53;5049968;28;20420;-83
2023/08/17 09:56:56;;;;;;;9.17;5.93;;;;;;;24.53;66.11;101417.22;5043271;28;20521;-83
2023/08/17 09:59:25;;;;;;;7.53;5.70;;;;;;;24.47;66.15;101421.09;5045169;28;20495;-83
2023/08/17 10:01:55;;;;;;;9.07;5.13;;;;;;;24.59;66.00;101413.28;5059518;28;20475;-83
2023/08/17 10:04:27;;;;;;;6.60;5.60;;;;;;;24.71;65.70;101409.38;5056737;28;20420;-84
2023/08/17 10:07:00;;;;;;;5.57;4.97;;;;;;;24.62;66.17;101411.91;5058858;28;20459;-83
2023/08/17 10:09:37;;;;;;;9.97;5.70;;;;;;;24.75;66.20;101404.94;5059993;28;20421;-83
2023/08/17 10:12:11;;;;;;;5.93;5.43;;;;;;;24.81;65.77;101403.78;5059572;28;20448;-83
2023/08/17 10:14:50;;;;;;;6.43;5.30;;;;;;;24.66;66.17;101404.69;5058359;28;20424;-82
2023/08/17 10:17:28;;;;;;;6.53;5.10;;;;;;;24.50;66.16;101409.47;5059484;28;20679;-84
2023/08/17 10:20:08;;;;;;;9.03;5.30;;;;;;;24.34;66.87;101409.81;5040610;28;20528;-85
2023/08/17 10:22:49;;;;;;;5.10;4.70;;;;;;;24.19;67.81;101407.91;5054698;28;20429;-83
2023/08/17 10:25:23;;;;;;;5.47;4.93;;;;;;;24.18;67.74;101400.72;5050506;28;20408;-86
2023/08/17 10:27:55;;;;;;;8.10;5.87;;;;;;;23.89;69.04;101396.88;5057149;28;20407;-84
2023/08/17 10:30:28;;;;;;;6.50;4.93;;;;;;;23.83;69.57;101405.19;5056733;28;20417;-83
2023/08/17 10:32:58;;;;;;;7.10;5.80;;;;;;;24.00;69.54;101399.38;5058572;28;20523;-82
2023/08/17 10:35:29;;;;;;;8.90;4.87;;;;;;;23.80;69.64;101400.22;5051633;28;20424;-83
2023/08/17 10:38:00;;;;;;;5.87;5.20;;;;;;;23.95;69.47;101401.31;5057288;28;20436;-82
2023/08/17 10:40:37;;;;;;;6.50;5.90;;;;;;;24.05;69.53;101399.34;5060165;28;20459;-84
2023/08/17 10:43:07;;;;;;;9.03;5.40;;;;;;;24.31;69.17;101405.66;5058331;28;20431;-83
2023/08/17 10:45:40;;;;;;;6.80;5.30;;;;;;;24.62;68.12;101401.69;5055048;28;20498;-82
2023/08/17 10:48:33;;;;;;;5.50;5.00;;;;;;;24.88;66.67;101398.81;5058566;28;20436;-83
2023/08/17 10:51:06;;;;;;;5.50;5.10;;;;;;;24.95;65.83;101399.31;5055018;28;20442;-83
2023/08/17 10:53:42;;;;;;;6.00;5.17;;;;;;;24.62;67.36;101396.16;5059698;28;20420;-83
2023/08/17 10:56:18;;;;;;;6.90;6.30;;;;;;;24.62;67.94;101396.16;5058817;28;20419;-83
2023/08/17 10:58:59;;;;;;;7.83;7.13;;;;;;;24.59;67.15;101388.41;5055094;28;20460;-82
2023/08/17 11:01:36;;;;;;;5.90;5.33;;;;;;;24.91;65.83;101395.47;5053181;28;20548;-83
2023/08/17 11:04:17;;;;;;;5.90;5.40;;;;;;;25.45;63.73;101387.06;5052501;28;20459;-84
2023/08/17 11:06:46;;;;;;;6.30;5.70;;;;;;;25.14;64.67;101391.16;5058410;28;20449;-82
2023/08/17 11:09:23;;;;;;;7.23;6.63;;;;;;;25.20;65.29;101396.41;5058216;28;20446;-82
2023/08/17 11:11:55;;;;;;;5.43;4.60;;;;;;;25.33;64.28;101390.19;5049033;28;20453;-82
2023/08/17 11:14:25;;;;;;;6.10;5.50;;;;;;;25.33;64.68;101384.66;5051044;28;20416;-83
2023/08/17 11:16:54;;;;;;;8.73;6.87;;;;;;;25.22;65.05;101385.03;5058588;28;20471;-83
2023/08/17 11:19:24;;;;;;;7.17;5.90;;;;;;;25.48;64.46;101384.53;5045634;28;20434;-82
2023/08/17 11:21:55;;;;;;;7.60;6.60;;;;;;;25.40;64.47;101390.72;5049632;28;20460;-84
2023/08/17 11:24:24;;;;;;;11.03;6.20;;;;;;;25.29;65.15;101386.34;5046552;28;20539;-83
2023/08/17 11:26:59;;;;;;;11.80;7.03;;;;;;;24.98;66.38;101387.69;5055679;28;20415;-83
2023/08/17 11:29:33;;;;;;;10.00;6.97;;;;;;;25.07;66.04;101381.25;5052057;28;20413;-83
2023/08/17 11:32:02;;;;;;;7.80;7.03;;;;;;;25.02;67.18;101386.84;5057920;28;20438;-84
2023/08/17 11:34:36;;;;;;;8.20;7.50;;;;;;;25.09;66.27;101389.25;5056954;28;20428;-84
2023/08/17 11:37:06;;;;;;;6.70;5.90;;;;;;;25.00;66.45;101385.44;5052864;28;20428;-84
2023/08/17 11:39:36;;;;;;;6.40;5.80;;;;;;;24.81;67.55;101384.41;5056323;28;20440;-82